sensor_id;sensor_type;location;lat;lon;timestamp;P1;durP1;ratioP1;P2;durP2;ratioP2
55423;SDS011;41294;42.666;23.350;2023-11-21T00:01:26;20.90;;;14.47;;
55423;SDS011;41294;42.666;23.350;2023-11-21T00:03:52;19.37;;;14.07;;
55423;SDS011;41294;42.666;23.350;2023-11-21T00:06:20;19.50;;;14.10;;
55423;SDS011;41294;42.666;23.350;2023-11-21T00:08:45;18.03;;;13.00;;
55423;SDS011;41294;42.666;23.350;2023-11-21T00:11:11;21.93;;;13.43;;
55423;SDS011;41294;42.666;23.350;2023-11-21T00:13:36;18.50;;;13.07;;
55423;SDS011;41294;42.666;23.350;2023-11-21T00:16:02;16.63;;;13.07;;
55423;SDS011;41294;42.666;23.350;2023-11-21T00:18:29;19.10;;;13.87;;
55423;SDS011;41294;42.666;23.350;2023-11-21T00:20:54;22.27;;;14.43;;
55423;SDS011;41294;42.666;23.350;2023-11-21T00:23:20;17.10;;;13.50;;
55423;SDS011;41294;42.666;23.350;2023-11-21T00:25:45;21.40;;;15.00;;
55423;SDS011;41294;42.666;23.350;2023-11-21T00:28:11;16.33;;;13.10;;
55423;SDS011;41294;42.666;23.350;2023-11-21T00:30:36;17.33;;;12.47;;
55423;SDS011;41294;42.666;23.350;2023-11-21T00:33:01;18.43;;;12.37;;
55423;SDS011;41294;42.666;23.350;2023-11-21T00:35:27;17.67;;;12.27;;
55423;SDS011;41294;42.666;23.350;2023-11-21T00:37:52;14.77;;;12.30;;
55423;SDS011;41294;42.666;23.350;2023-11-21T00:40:18;21.00;;;12.37;;
55423;SDS011;41294;42.666;23.350;2023-11-21T00:42:47;18.43;;;11.87;;
55423;SDS011;41294;42.666;23.350;2023-11-21T00:45:12;18.53;;;11.43;;
55423;SDS011;41294;42.666;23.350;2023-11-21T00:47:38;15.47;;;11.00;;
55423;SDS011;41294;42.666;23.350;2023-11-21T00:50:04;13.57;;;10.57;;
55423;SDS011;41294;42.666;23.350;2023-11-21T00:52:31;19.17;;;12.10;;
55423;SDS011;41294;42.666;23.350;2023-11-21T00:54:57;17.83;;;11.07;;
55423;SDS011;41294;42.666;23.350;2023-11-21T00:57:25;18.17;;;11.73;;
55423;SDS011;41294;42.666;23.350;2023-11-21T00:59:51;15.37;;;10.80;;
55423;SDS011;41294;42.666;23.350;2023-11-21T01:02:18;17.33;;;11.00;;
55423;SDS011;41294;42.666;23.350;2023-11-21T01:04:43;15.13;;;10.53;;
55423;SDS011;41294;42.666;23.350;2023-11-21T01:07:08;17.23;;;10.63;;
55423;SDS011;41294;42.666;23.350;2023-11-21T01:09:34;12.20;;;10.03;;
55423;SDS011;41294;42.666;23.350;2023-11-21T01:11:59;16.93;;;10.87;;
55423;SDS011;41294;42.666;23.350;2023-11-21T01:14:25;16.13;;;9.83;;
55423;SDS011;41294;42.666;23.350;2023-11-21T01:16:51;14.47;;;9.87;;
55423;SDS011;41294;42.666;23.350;2023-11-21T01:19:17;12.63;;;8.87;;
55423;SDS011;41294;42.666;23.350;2023-11-21T01:21:42;13.33;;;9.40;;
55423;SDS011;41294;42.666;23.350;2023-11-21T01:24:08;15.40;;;9.60;;
55423;SDS011;41294;42.666;23.350;2023-11-21T01:26:34;13.97;;;10.23;;
55423;SDS011;41294;42.666;23.350;2023-11-21T01:28:59;12.20;;;9.00;;
55423;SDS011;41294;42.666;23.350;2023-11-21T01:31:24;13.87;;;8.87;;
55423;SDS011;41294;42.666;23.350;2023-11-21T01:33:54;14.10;;;9.77;;
55423;SDS011;41294;42.666;23.350;2023-11-21T01:36:20;13.07;;;8.87;;
55423;SDS011;41294;42.666;23.350;2023-11-21T01:38:46;13.00;;;8.97;;
55423;SDS011;41294;42.666;23.350;2023-11-21T01:41:13;13.77;;;9.10;;
55423;SDS011;41294;42.666;23.350;2023-11-21T01:43:39;11.63;;;8.57;;
55423;SDS011;41294;42.666;23.350;2023-11-21T01:46:05;10.63;;;8.33;;
55423;SDS011;41294;42.666;23.350;2023-11-21T01:48:31;12.40;;;8.97;;
55423;SDS011;41294;42.666;23.350;2023-11-21T01:50:57;12.37;;;8.67;;
55423;SDS011;41294;42.666;23.350;2023-11-21T01:53:26;14.77;;;8.43;;
55423;SDS011;41294;42.666;23.350;2023-11-21T01:55:53;13.60;;;8.83;;
55423;SDS011;41294;42.666;23.350;2023-11-21T01:58:21;11.47;;;8.30;;
55423;SDS011;41294;42.666;23.350;2023-11-21T02:00:47;12.07;;;9.07;;
55423;SDS011;41294;42.666;23.350;2023-11-21T02:03:16;10.17;;;8.00;;
55423;SDS011;41294;42.666;23.350;2023-11-21T02:05:41;12.47;;;9.17;;
55423;SDS011;41294;42.666;23.350;2023-11-21T02:08:07;11.27;;;8.77;;
55423;SDS011;41294;42.666;23.350;2023-11-21T02:10:34;11.23;;;8.33;;
55423;SDS011;41294;42.666;23.350;2023-11-21T02:13:02;12.93;;;8.80;;
55423;SDS011;41294;42.666;23.350;2023-11-21T02:15:27;14.67;;;8.73;;
55423;SDS011;41294;42.666;23.350;2023-11-21T02:17:53;14.73;;;9.17;;
55423;SDS011;41294;42.666;23.350;2023-11-21T02:20:22;14.70;;;8.97;;
55423;SDS011;41294;42.666;23.350;2023-11-21T02:22:52;13.87;;;9.43;;
55423;SDS011;41294;42.666;23.350;2023-11-21T02:25:26;13.23;;;8.90;;
55423;SDS011;41294;42.666;23.350;2023-11-21T02:27:56;13.30;;;8.73;;
55423;SDS011;41294;42.666;23.350;2023-11-21T02:30:22;15.10;;;9.17;;
55423;SDS011;41294;42.666;23.350;2023-11-21T02:32:50;15.47;;;9.97;;
55423;SDS011;41294;42.666;23.350;2023-11-21T02:35:18;16.23;;;9.90;;
55423;SDS011;41294;42.666;23.350;2023-11-21T02:37:46;11.67;;;8.87;;
55423;SDS011;41294;42.666;23.350;2023-11-21T02:40:12;14.97;;;10.70;;
55423;SDS011;41294;42.666;23.350;2023-11-21T02:42:37;14.73;;;10.70;;
55423;SDS011;41294;42.666;23.350;2023-11-21T02:45:06;15.37;;;10.77;;
55423;SDS011;41294;42.666;23.350;2023-11-21T02:47:33;15.83;;;11.10;;
55423;SDS011;41294;42.666;23.350;2023-11-21T02:49:58;15.17;;;10.50;;
55423;SDS011;41294;42.666;23.350;2023-11-21T02:52:24;16.73;;;11.07;;
55423;SDS011;41294;42.666;23.350;2023-11-21T02:54:50;16.13;;;10.93;;
55423;SDS011;41294;42.666;23.350;2023-11-21T02:57:16;13.87;;;11.60;;
55423;SDS011;41294;42.666;23.350;2023-11-21T02:59:41;15.87;;;11.40;;
55423;SDS011;41294;42.666;23.350;2023-11-21T03:02:07;17.03;;;11.83;;
55423;SDS011;41294;42.666;23.350;2023-11-21T03:04:35;17.37;;;12.47;;
55423;SDS011;41294;42.666;23.350;2023-11-21T03:07:00;17.23;;;11.03;;
55423;SDS011;41294;42.666;23.350;2023-11-21T03:09:26;19.80;;;12.60;;
55423;SDS011;41294;42.666;23.350;2023-11-21T03:11:52;17.93;;;11.87;;
55423;SDS011;41294;42.666;23.350;2023-11-21T03:14:18;20.83;;;12.93;;
55423;SDS011;41294;42.666;23.350;2023-11-21T03:16:44;17.53;;;13.27;;
55423;SDS011;41294;42.666;23.350;2023-11-21T03:19:10;20.73;;;13.23;;
55423;SDS011;41294;42.666;23.350;2023-11-21T03:21:36;22.93;;;12.77;;
55423;SDS011;41294;42.666;23.350;2023-11-21T03:24:02;19.23;;;12.63;;
55423;SDS011;41294;42.666;23.350;2023-11-21T03:26:28;17.70;;;12.93;;
55423;SDS011;41294;42.666;23.350;2023-11-21T03:28:54;19.63;;;13.93;;
55423;SDS011;41294;42.666;23.350;2023-11-21T03:31:20;23.93;;;14.23;;
55423;SDS011;41294;42.666;23.350;2023-11-21T03:33:46;18.33;;;13.57;;
55423;SDS011;41294;42.666;23.350;2023-11-21T03:36:12;20.83;;;14.37;;
55423;SDS011;41294;42.666;23.350;2023-11-21T03:38:37;22.27;;;15.23;;
55423;SDS011;41294;42.666;23.350;2023-11-21T03:41:03;21.30;;;14.40;;
55423;SDS011;41294;42.666;23.350;2023-11-21T03:43:29;23.30;;;15.30;;
55423;SDS011;41294;42.666;23.350;2023-11-21T03:45:55;22.30;;;15.47;;
55423;SDS011;41294;42.666;23.350;2023-11-21T03:48:20;21.40;;;15.77;;
55423;SDS011;41294;42.666;23.350;2023-11-21T03:50:46;22.63;;;15.67;;
55423;SDS011;41294;42.666;23.350;2023-11-21T03:53:12;23.93;;;16.00;;
55423;SDS011;41294;42.666;23.350;2023-11-21T03:55:37;23.30;;;17.30;;
55423;SDS011;41294;42.666;23.350;2023-11-21T03:58:03;23.60;;;15.93;;
55423;SDS011;41294;42.666;23.350;2023-11-21T04:00:28;21.57;;;15.13;;
55423;SDS011;41294;42.666;23.350;2023-11-21T04:02:54;23.27;;;15.47;;
55423;SDS011;41294;42.666;23.350;2023-11-21T04:05:20;25.70;;;16.90;;
55423;SDS011;41294;42.666;23.350;2023-11-21T04:07:46;22.67;;;16.37;;
55423;SDS011;41294;42.666;23.350;2023-11-21T04:10:12;22.10;;;15.90;;
55423;SDS011;41294;42.666;23.350;2023-11-21T04:12:38;24.37;;;15.67;;
55423;SDS011;41294;42.666;23.350;2023-11-21T04:15:04;24.23;;;15.80;;
55423;SDS011;41294;42.666;23.350;2023-11-21T04:17:29;24.33;;;16.07;;
55423;SDS011;41294;42.666;23.350;2023-11-21T04:19:55;21.67;;;15.33;;
55423;SDS011;41294;42.666;23.350;2023-11-21T04:22:21;23.57;;;16.33;;
55423;SDS011;41294;42.666;23.350;2023-11-21T04:24:46;24.47;;;16.73;;
55423;SDS011;41294;42.666;23.350;2023-11-21T04:27:12;26.00;;;16.67;;
55423;SDS011;41294;42.666;23.350;2023-11-21T04:29:38;22.60;;;15.77;;
55423;SDS011;41294;42.666;23.350;2023-11-21T04:32:03;22.70;;;15.00;;
55423;SDS011;41294;42.666;23.350;2023-11-21T04:34:29;18.67;;;13.70;;
55423;SDS011;41294;42.666;23.350;2023-11-21T04:36:56;19.83;;;14.63;;
55423;SDS011;41294;42.666;23.350;2023-11-21T04:39:22;22.40;;;15.77;;
55423;SDS011;41294;42.666;23.350;2023-11-21T04:41:47;24.97;;;15.40;;
55423;SDS011;41294;42.666;23.350;2023-11-21T04:44:13;21.30;;;15.90;;
55423;SDS011;41294;42.666;23.350;2023-11-21T04:46:38;20.33;;;14.83;;
55423;SDS011;41294;42.666;23.350;2023-11-21T04:49:04;24.73;;;15.63;;
55423;SDS011;41294;42.666;23.350;2023-11-21T04:51:29;26.20;;;17.20;;
55423;SDS011;41294;42.666;23.350;2023-11-21T04:53:56;21.30;;;14.77;;
55423;SDS011;41294;42.666;23.350;2023-11-21T04:56:21;21.83;;;16.53;;
55423;SDS011;41294;42.666;23.350;2023-11-21T04:58:47;22.33;;;16.03;;
55423;SDS011;41294;42.666;23.350;2023-11-21T05:01:12;26.43;;;17.07;;
55423;SDS011;41294;42.666;23.350;2023-11-21T05:03:37;25.50;;;16.87;;
55423;SDS011;41294;42.666;23.350;2023-11-21T05:06:04;23.73;;;16.07;;
55423;SDS011;41294;42.666;23.350;2023-11-21T05:08:30;22.63;;;15.77;;
55423;SDS011;41294;42.666;23.350;2023-11-21T05:10:56;26.17;;;16.17;;
55423;SDS011;41294;42.666;23.350;2023-11-21T05:13:22;22.33;;;16.30;;
55423;SDS011;41294;42.666;23.350;2023-11-21T05:15:52;28.27;;;17.23;;
55423;SDS011;41294;42.666;23.350;2023-11-21T05:18:21;27.23;;;15.90;;
55423;SDS011;41294;42.666;23.350;2023-11-21T05:20:47;25.67;;;16.83;;
55423;SDS011;41294;42.666;23.350;2023-11-21T05:23:12;23.67;;;16.90;;
55423;SDS011;41294;42.666;23.350;2023-11-21T05:25:38;25.67;;;17.37;;
55423;SDS011;41294;42.666;23.350;2023-11-21T05:28:03;25.47;;;16.37;;
55423;SDS011;41294;42.666;23.350;2023-11-21T05:30:29;23.77;;;16.53;;
55423;SDS011;41294;42.666;23.350;2023-11-21T05:32:54;25.27;;;16.20;;
55423;SDS011;41294;42.666;23.350;2023-11-21T05:35:20;22.47;;;16.17;;
55423;SDS011;41294;42.666;23.350;2023-11-21T05:37:46;23.13;;;15.77;;
55423;SDS011;41294;42.666;23.350;2023-11-21T05:40:12;24.20;;;16.43;;
55423;SDS011;41294;42.666;23.350;2023-11-21T05:42:38;21.77;;;16.20;;
55423;SDS011;41294;42.666;23.350;2023-11-21T05:45:04;25.63;;;16.43;;
55423;SDS011;41294;42.666;23.350;2023-11-21T05:47:37;25.87;;;16.30;;
55423;SDS011;41294;42.666;23.350;2023-11-21T05:50:06;28.97;;;18.00;;
55423;SDS011;41294;42.666;23.350;2023-11-21T05:52:36;25.93;;;16.60;;
55423;SDS011;41294;42.666;23.350;2023-11-21T05:55:02;23.67;;;15.67;;
55423;SDS011;41294;42.666;23.350;2023-11-21T05:57:32;27.07;;;17.27;;
55423;SDS011;41294;42.666;23.350;2023-11-21T06:00:14;25.97;;;17.93;;
55423;SDS011;41294;42.666;23.350;2023-11-21T06:02:43;25.40;;;16.83;;
55423;SDS011;41294;42.666;23.350;2023-11-21T06:05:10;22.87;;;16.33;;
55423;SDS011;41294;42.666;23.350;2023-11-21T06:07:35;27.30;;;17.00;;
55423;SDS011;41294;42.666;23.350;2023-11-21T06:10:03;32.10;;;17.77;;
55423;SDS011;41294;42.666;23.350;2023-11-21T06:12:32;27.47;;;16.73;;
55423;SDS011;41294;42.666;23.350;2023-11-21T06:15:01;24.90;;;17.93;;
55423;SDS011;41294;42.666;23.350;2023-11-21T06:17:30;29.80;;;17.13;;
55423;SDS011;41294;42.666;23.350;2023-11-21T06:19:56;23.90;;;16.57;;
55423;SDS011;41294;42.666;23.350;2023-11-21T06:22:22;27.53;;;17.47;;
55423;SDS011;41294;42.666;23.350;2023-11-21T06:24:47;30.73;;;16.77;;
55423;SDS011;41294;42.666;23.350;2023-11-21T06:27:13;26.87;;;17.50;;
55423;SDS011;41294;42.666;23.350;2023-11-21T06:29:38;21.77;;;15.13;;
55423;SDS011;41294;42.666;23.350;2023-11-21T06:32:04;20.23;;;14.40;;
55423;SDS011;41294;42.666;23.350;2023-11-21T06:34:30;22.13;;;15.03;;
55423;SDS011;41294;42.666;23.350;2023-11-21T06:36:56;27.00;;;18.33;;
55423;SDS011;41294;42.666;23.350;2023-11-21T06:39:21;31.17;;;17.77;;
55423;SDS011;41294;42.666;23.350;2023-11-21T06:41:49;22.13;;;17.40;;
55423;SDS011;41294;42.666;23.350;2023-11-21T06:44:15;27.63;;;18.23;;
55423;SDS011;41294;42.666;23.350;2023-11-21T06:46:40;24.20;;;16.70;;
55423;SDS011;41294;42.666;23.350;2023-11-21T06:49:07;23.60;;;16.70;;
55423;SDS011;41294;42.666;23.350;2023-11-21T06:51:33;25.90;;;15.87;;
55423;SDS011;41294;42.666;23.350;2023-11-21T06:53:58;20.80;;;15.40;;
55423;SDS011;41294;42.666;23.350;2023-11-21T06:56:24;22.50;;;14.80;;
55423;SDS011;41294;42.666;23.350;2023-11-21T06:58:50;19.67;;;14.90;;
55423;SDS011;41294;42.666;23.350;2023-11-21T07:01:19;20.90;;;14.10;;
55423;SDS011;41294;42.666;23.350;2023-11-21T07:03:44;21.03;;;14.20;;
55423;SDS011;41294;42.666;23.350;2023-11-21T07:06:10;17.40;;;13.90;;
55423;SDS011;41294;42.666;23.350;2023-11-21T07:08:36;21.23;;;14.50;;
55423;SDS011;41294;42.666;23.350;2023-11-21T07:11:02;21.03;;;15.20;;
55423;SDS011;41294;42.666;23.350;2023-11-21T07:13:28;18.87;;;13.23;;
55423;SDS011;41294;42.666;23.350;2023-11-21T07:15:54;14.73;;;11.57;;
55423;SDS011;41294;42.666;23.350;2023-11-21T07:18:19;17.17;;;10.57;;
55423;SDS011;41294;42.666;23.350;2023-11-21T07:20:45;11.60;;;9.47;;
55423;SDS011;41294;42.666;23.350;2023-11-21T07:23:11;14.10;;;9.60;;
55423;SDS011;41294;42.666;23.350;2023-11-21T07:25:36;14.37;;;10.07;;
55423;SDS011;41294;42.666;23.350;2023-11-21T07:28:01;15.40;;;10.23;;
55423;SDS011;41294;42.666;23.350;2023-11-21T07:30:27;19.43;;;11.47;;
55423;SDS011;41294;42.666;23.350;2023-11-21T07:32:53;17.07;;;11.00;;
55423;SDS011;41294;42.666;23.350;2023-11-21T07:35:18;13.47;;;10.33;;
55423;SDS011;41294;42.666;23.350;2023-11-21T07:41:06;18.00;;;11.63;;
55423;SDS011;41294;42.666;23.350;2023-11-21T07:43:35;13.67;;;10.53;;
55423;SDS011;41294;42.666;23.350;2023-11-21T07:46:04;15.97;;;10.87;;
55423;SDS011;41294;42.666;23.350;2023-11-21T07:48:30;15.43;;;10.97;;
55423;SDS011;41294;42.666;23.350;2023-11-21T07:50:56;17.10;;;11.27;;
55423;SDS011;41294;42.666;23.350;2023-11-21T07:53:23;17.50;;;11.80;;
55423;SDS011;41294;42.666;23.350;2023-11-21T07:55:54;16.17;;;10.33;;
55423;SDS011;41294;42.666;23.350;2023-11-21T07:58:19;14.33;;;9.97;;
55423;SDS011;41294;42.666;23.350;2023-11-21T08:00:45;16.97;;;9.90;;
55423;SDS011;41294;42.666;23.350;2023-11-21T08:03:10;15.40;;;9.67;;
55423;SDS011;41294;42.666;23.350;2023-11-21T08:05:37;15.50;;;9.80;;
55423;SDS011;41294;42.666;23.350;2023-11-21T08:08:02;11.43;;;9.17;;
55423;SDS011;41294;42.666;23.350;2023-11-21T08:10:28;16.60;;;10.30;;
55423;SDS011;41294;42.666;23.350;2023-11-21T08:12:54;16.40;;;10.83;;
55423;SDS011;41294;42.666;23.350;2023-11-21T08:15:19;16.40;;;11.07;;
55423;SDS011;41294;42.666;23.350;2023-11-21T08:17:46;15.60;;;9.83;;
55423;SDS011;41294;42.666;23.350;2023-11-21T08:20:11;17.60;;;11.63;;
55423;SDS011;41294;42.666;23.350;2023-11-21T08:22:37;21.20;;;11.23;;
55423;SDS011;41294;42.666;23.350;2023-11-21T08:25:06;13.80;;;9.57;;
55423;SDS011;41294;42.666;23.350;2023-11-21T08:27:33;15.63;;;10.13;;
55423;SDS011;41294;42.666;23.350;2023-11-21T08:29:59;17.70;;;10.00;;
55423;SDS011;41294;42.666;23.350;2023-11-21T08:32:25;13.30;;;10.40;;
55423;SDS011;41294;42.666;23.350;2023-11-21T08:34:50;13.20;;;9.17;;
55423;SDS011;41294;42.666;23.350;2023-11-21T08:37:16;14.73;;;10.53;;
55423;SDS011;41294;42.666;23.350;2023-11-21T08:39:45;18.07;;;10.27;;
55423;SDS011;41294;42.666;23.350;2023-11-21T08:42:10;17.53;;;10.60;;
55423;SDS011;41294;42.666;23.350;2023-11-21T08:44:36;15.77;;;10.87;;
55423;SDS011;41294;42.666;23.350;2023-11-21T08:47:01;15.83;;;11.23;;
55423;SDS011;41294;42.666;23.350;2023-11-21T08:49:27;16.27;;;11.60;;
55423;SDS011;41294;42.666;23.350;2023-11-21T08:51:54;13.63;;;10.50;;
55423;SDS011;41294;42.666;23.350;2023-11-21T08:54:20;14.77;;;10.33;;
55423;SDS011;41294;42.666;23.350;2023-11-21T08:56:46;15.43;;;11.00;;
55423;SDS011;41294;42.666;23.350;2023-11-21T08:59:12;11.87;;;9.97;;
55423;SDS011;41294;42.666;23.350;2023-11-21T09:01:39;18.57;;;11.70;;
55423;SDS011;41294;42.666;23.350;2023-11-21T09:04:06;13.93;;;11.23;;
55423;SDS011;41294;42.666;23.350;2023-11-21T09:06:31;18.77;;;10.57;;
55423;SDS011;41294;42.666;23.350;2023-11-21T09:08:57;24.33;;;17.97;;
55423;SDS011;41294;42.666;23.350;2023-11-21T09:11:23;34.97;;;25.00;;
55423;SDS011;41294;42.666;23.350;2023-11-21T09:13:50;35.17;;;24.87;;
55423;SDS011;41294;42.666;23.350;2023-11-21T09:16:16;37.83;;;26.17;;
55423;SDS011;41294;42.666;23.350;2023-11-21T09:18:42;39.03;;;25.80;;
55423;SDS011;41294;42.666;23.350;2023-11-21T09:21:07;35.00;;;26.10;;
55423;SDS011;41294;42.666;23.350;2023-11-21T09:23:34;37.37;;;25.67;;
55423;SDS011;41294;42.666;23.350;2023-11-21T09:26:00;36.77;;;25.63;;
55423;SDS011;41294;42.666;23.350;2023-11-21T09:28:26;34.70;;;26.13;;
55423;SDS011;41294;42.666;23.350;2023-11-21T09:30:52;34.43;;;23.80;;
55423;SDS011;41294;42.666;23.350;2023-11-21T09:33:18;34.50;;;24.80;;
55423;SDS011;41294;42.666;23.350;2023-11-21T09:35:44;33.20;;;26.20;;
55423;SDS011;41294;42.666;23.350;2023-11-21T09:38:09;36.87;;;25.53;;
55423;SDS011;41294;42.666;23.350;2023-11-21T09:40:35;34.50;;;24.10;;
55423;SDS011;41294;42.666;23.350;2023-11-21T09:43:06;28.07;;;20.27;;
55423;SDS011;41294;42.666;23.350;2023-11-21T09:45:40;33.20;;;23.10;;
55423;SDS011;41294;42.666;23.350;2023-11-21T09:48:11;28.30;;;20.00;;
55423;SDS011;41294;42.666;23.350;2023-11-21T09:50:38;26.97;;;18.60;;
55423;SDS011;41294;42.666;23.350;2023-11-21T09:55:43;31.47;;;20.13;;
55423;SDS011;41294;42.666;23.350;2023-11-21T09:58:10;27.33;;;17.23;;
55423;SDS011;41294;42.666;23.350;2023-11-21T10:00:39;28.60;;;17.23;;
55423;SDS011;41294;42.666;23.350;2023-11-21T10:03:17;26.40;;;17.17;;
55423;SDS011;41294;42.666;23.350;2023-11-21T10:05:43;24.27;;;17.60;;
55423;SDS011;41294;42.666;23.350;2023-11-21T10:08:11;26.90;;;16.87;;
55423;SDS011;41294;42.666;23.350;2023-11-21T10:10:38;26.30;;;15.30;;
55423;SDS011;41294;42.666;23.350;2023-11-21T10:13:10;24.70;;;17.33;;
55423;SDS011;41294;42.666;23.350;2023-11-21T10:15:37;26.27;;;17.13;;
55423;SDS011;41294;42.666;23.350;2023-11-21T10:18:03;25.10;;;16.80;;
55423;SDS011;41294;42.666;23.350;2023-11-21T10:20:31;20.43;;;14.87;;
55423;SDS011;41294;42.666;23.350;2023-11-21T10:23:02;24.13;;;15.27;;
55423;SDS011;41294;42.666;23.350;2023-11-21T10:25:29;25.40;;;14.50;;
55423;SDS011;41294;42.666;23.350;2023-11-21T10:27:59;21.20;;;14.60;;
55423;SDS011;41294;42.666;23.350;2023-11-21T10:30:33;19.17;;;13.97;;
55423;SDS011;41294;42.666;23.350;2023-11-21T10:33:02;19.03;;;13.53;;
55423;SDS011;41294;42.666;23.350;2023-11-21T10:35:47;18.40;;;12.20;;
55423;SDS011;41294;42.666;23.350;2023-11-21T10:38:16;24.80;;;13.50;;
55423;SDS011;41294;42.666;23.350;2023-11-21T10:40:47;19.97;;;12.67;;
55423;SDS011;41294;42.666;23.350;2023-11-21T10:43:14;17.47;;;12.87;;
55423;SDS011;41294;42.666;23.350;2023-11-21T10:45:40;16.67;;;12.70;;
55423;SDS011;41294;42.666;23.350;2023-11-21T10:48:07;17.77;;;12.60;;
55423;SDS011;41294;42.666;23.350;2023-11-21T10:50:37;19.87;;;12.70;;
55423;SDS011;41294;42.666;23.350;2023-11-21T10:53:04;16.60;;;13.23;;
55423;SDS011;41294;42.666;23.350;2023-11-21T10:55:31;18.50;;;12.17;;
55423;SDS011;41294;42.666;23.350;2023-11-21T10:58:04;19.70;;;13.60;;
55423;SDS011;41294;42.666;23.350;2023-11-21T11:00:31;15.13;;;12.30;;
55423;SDS011;41294;42.666;23.350;2023-11-21T11:02:58;16.03;;;12.27;;
55423;SDS011;41294;42.666;23.350;2023-11-21T11:05:26;19.40;;;12.27;;
55423;SDS011;41294;42.666;23.350;2023-11-21T11:08:08;16.13;;;11.57;;
55423;SDS011;41294;42.666;23.350;2023-11-21T11:10:37;17.93;;;12.13;;
55423;SDS011;41294;42.666;23.350;2023-11-21T11:13:03;16.03;;;11.03;;
55423;SDS011;41294;42.666;23.350;2023-11-21T11:15:31;15.93;;;12.23;;
55423;SDS011;41294;42.666;23.350;2023-11-21T11:17:58;18.57;;;12.73;;
55423;SDS011;41294;42.666;23.350;2023-11-21T11:20:34;18.40;;;12.40;;
55423;SDS011;41294;42.666;23.350;2023-11-21T11:26:06;17.73;;;12.13;;
55423;SDS011;41294;42.666;23.350;2023-11-21T11:29:10;13.60;;;10.80;;
55423;SDS011;41294;42.666;23.350;2023-11-21T11:31:44;16.30;;;11.00;;
55423;SDS011;41294;42.666;23.350;2023-11-21T11:34:26;15.67;;;10.90;;
55423;SDS011;41294;42.666;23.350;2023-11-21T11:39:27;16.90;;;10.77;;
55423;SDS011;41294;42.666;23.350;2023-11-21T11:42:15;12.57;;;9.87;;
55423;SDS011;41294;42.666;23.350;2023-11-21T11:50:00;17.40;;;10.73;;
55423;SDS011;41294;42.666;23.350;2023-11-21T11:55:20;18.20;;;11.70;;
55423;SDS011;41294;42.666;23.350;2023-11-21T11:57:47;16.50;;;11.50;;
55423;SDS011;41294;42.666;23.350;2023-11-21T12:00:14;15.90;;;11.97;;
55423;SDS011;41294;42.666;23.350;2023-11-21T12:02:53;23.77;;;12.47;;
55423;SDS011;41294;42.666;23.350;2023-11-21T12:05:24;17.13;;;11.90;;
55423;SDS011;41294;42.666;23.350;2023-11-21T12:07:54;17.63;;;13.00;;
55423;SDS011;41294;42.666;23.350;2023-11-21T12:10:26;19.87;;;13.93;;
55423;SDS011;41294;42.666;23.350;2023-11-21T12:12:57;17.87;;;14.23;;
55423;SDS011;41294;42.666;23.350;2023-11-21T12:15:24;19.70;;;15.37;;
55423;SDS011;41294;42.666;23.350;2023-11-21T12:17:50;19.87;;;15.83;;
55423;SDS011;41294;42.666;23.350;2023-11-21T12:20:23;22.47;;;16.77;;
55423;SDS011;41294;42.666;23.350;2023-11-21T12:22:51;23.40;;;17.37;;
55423;SDS011;41294;42.666;23.350;2023-11-21T12:25:18;24.07;;;17.40;;
55423;SDS011;41294;42.666;23.350;2023-11-21T12:27:45;27.80;;;18.00;;
55423;SDS011;41294;42.666;23.350;2023-11-21T12:30:14;28.00;;;18.07;;
55423;SDS011;41294;42.666;23.350;2023-11-21T12:32:42;24.07;;;17.37;;
55423;SDS011;41294;42.666;23.350;2023-11-21T12:35:09;25.40;;;18.90;;
55423;SDS011;41294;42.666;23.350;2023-11-21T12:37:36;29.83;;;19.93;;
55423;SDS011;41294;42.666;23.350;2023-11-21T12:40:06;25.03;;;19.60;;
55423;SDS011;41294;42.666;23.350;2023-11-21T12:42:38;26.83;;;20.33;;
55423;SDS011;41294;42.666;23.350;2023-11-21T12:45:10;32.97;;;20.73;;
55423;SDS011;41294;42.666;23.350;2023-11-21T12:47:42;32.23;;;21.00;;
55423;SDS011;41294;42.666;23.350;2023-11-21T12:50:09;30.03;;;21.27;;
55423;SDS011;41294;42.666;23.350;2023-11-21T12:52:42;29.87;;;22.83;;
55423;SDS011;41294;42.666;23.350;2023-11-21T12:55:21;33.30;;;23.40;;
55423;SDS011;41294;42.666;23.350;2023-11-21T12:57:52;32.23;;;23.27;;
55423;SDS011;41294;42.666;23.350;2023-11-21T13:00:31;30.50;;;23.83;;
55423;SDS011;41294;42.666;23.350;2023-11-21T13:02:59;38.00;;;24.17;;
55423;SDS011;41294;42.666;23.350;2023-11-21T13:05:28;32.93;;;22.63;;
55423;SDS011;41294;42.666;23.350;2023-11-21T13:08:05;34.67;;;24.27;;
55423;SDS011;41294;42.666;23.350;2023-11-21T13:10:33;31.13;;;23.67;;
55423;SDS011;41294;42.666;23.350;2023-11-21T13:13:05;32.20;;;24.43;;
55423;SDS011;41294;42.666;23.350;2023-11-21T13:15:34;30.03;;;23.50;;
55423;SDS011;41294;42.666;23.350;2023-11-21T13:18:01;31.63;;;24.73;;
55423;SDS011;41294;42.666;23.350;2023-11-21T13:20:28;33.03;;;23.37;;
55423;SDS011;41294;42.666;23.350;2023-11-21T13:22:57;35.43;;;23.60;;
55423;SDS011;41294;42.666;23.350;2023-11-21T13:25:24;30.17;;;23.57;;
55423;SDS011;41294;42.666;23.350;2023-11-21T13:27:53;33.37;;;23.37;;
55423;SDS011;41294;42.666;23.350;2023-11-21T13:30:23;29.07;;;22.67;;
55423;SDS011;41294;42.666;23.350;2023-11-21T13:32:58;29.00;;;22.70;;
55423;SDS011;41294;42.666;23.350;2023-11-21T13:35:30;39.97;;;26.90;;
55423;SDS011;41294;42.666;23.350;2023-11-21T13:38:12;32.07;;;24.07;;
55423;SDS011;41294;42.666;23.350;2023-11-21T13:40:40;40.30;;;29.00;;
55423;SDS011;41294;42.666;23.350;2023-11-21T13:43:14;36.33;;;26.07;;
55423;SDS011;41294;42.666;23.350;2023-11-21T13:45:47;36.10;;;24.30;;
55423;SDS011;41294;42.666;23.350;2023-11-21T13:48:19;38.47;;;27.17;;
55423;SDS011;41294;42.666;23.350;2023-11-21T13:50:56;37.63;;;27.50;;
55423;SDS011;41294;42.666;23.350;2023-11-21T13:53:43;31.83;;;24.97;;
55423;SDS011;41294;42.666;23.350;2023-11-21T13:56:11;30.97;;;23.23;;
55423;SDS011;41294;42.666;23.350;2023-11-21T13:58:37;29.30;;;23.07;;
55423;SDS011;41294;42.666;23.350;2023-11-21T14:01:32;31.90;;;23.60;;
55423;SDS011;41294;42.666;23.350;2023-11-21T14:04:19;34.23;;;23.43;;
55423;SDS011;41294;42.666;23.350;2023-11-21T14:06:50;31.50;;;23.00;;
55423;SDS011;41294;42.666;23.350;2023-11-21T14:09:20;29.43;;;22.87;;
55423;SDS011;41294;42.666;23.350;2023-11-21T14:11:49;33.20;;;23.77;;
55423;SDS011;41294;42.666;23.350;2023-11-21T14:14:28;31.30;;;23.73;;
55423;SDS011;41294;42.666;23.350;2023-11-21T14:16:53;35.07;;;25.40;;
55423;SDS011;41294;42.666;23.350;2023-11-21T14:19:20;28.83;;;23.50;;
55423;SDS011;41294;42.666;23.350;2023-11-21T14:21:47;32.93;;;24.00;;
55423;SDS011;41294;42.666;23.350;2023-11-21T14:24:18;33.43;;;24.47;;
55423;SDS011;41294;42.666;23.350;2023-11-21T14:26:44;35.03;;;24.20;;
55423;SDS011;41294;42.666;23.350;2023-11-21T14:29:11;35.23;;;24.63;;
55423;SDS011;41294;42.666;23.350;2023-11-21T14:31:39;32.97;;;24.90;;
55423;SDS011;41294;42.666;23.350;2023-11-21T14:34:08;33.93;;;24.53;;